Terminal Aerodrome Forecast
Issued by NWS

Home | Current Version | Previous Version | Text Only | Print | Product List | Glossary On
Versions: 1 2 3 4 5 6 7 8 9 10 11 12 13 14 15 16 17 18 19 20 21 22 23 24 25
000
FTUS43 KIND 281120
TAFLAF
TAF
KLAF 281120Z 2812/2912 00000KT 2SM BR FEW003
     FM281400 10005KT P6SM SCT025 BKN250
     FM281800 10005KT P6SM VCTS SCT035CB BKN250
     FM290200 05004KT P6SM SCT100 BKN250
     FM291000 05002KT 3SM BR BKN200
      AMD LTD TO CLD VIS AND WIND TIL 281300=

USA.gov is the U.S. government's official web portal to all federal, state and local government web resources and services.